Time;durP1;ratioP1;P1;durP2;ratioP2;P2;SDS_P1;SDS_P2;PMS_P1;PMS_P2;Temp;Humidity;BMP_temperature;BMP_pressure;BME280_temperature;BME280_humidity;BME280_pressure;Samples;Min_cycle;Max_cycle;Signal;HPM_P1;HPM_P2
2021/03/05 00:01:19;;;;;;;8.18;1.20;;;;;;;;;;5066233;28;20029;-48
2021/03/05 00:03:46;;;;;;;3.15;0.80;;;;;;;;;;5070273;28;20432;-45
2021/03/05 00:06:13;;;;;;;3.20;0.90;;;;;;;;;;5068993;28;20107;-48
2021/03/05 00:08:40;;;;;;;4.13;1.02;;;;;;;;;;5070217;28;20032;-47
2021/03/05 00:11:07;;;;;;;9.07;1.10;;;;;;;;;;5068954;28;20053;-48
2021/03/05 00:13:34;;;;;;;7.65;1.30;;;;;;;;;;5071558;28;20019;-48
2021/03/05 00:16:01;;;;;;;4.35;1.10;;;;;;;;;;5065417;28;20033;-49
2021/03/05 00:18:28;;;;;;;2.25;0.82;;;;;;;;;;5069036;28;20040;-47
2021/03/05 00:20:56;;;;;;;2.78;0.88;;;;;;;;;;5075758;28;20033;-49
2021/03/05 00:23:23;;;;;;;7.25;0.80;;;;;;;;;;5071289;28;20074;-49
2021/03/05 00:25:50;;;;;;;4.35;0.80;;;;;;;;;;5067821;28;20028;-54
2021/03/05 00:28:18;;;;;;;2.42;0.70;;;;;;;;;;5070034;28;20111;-49
2021/03/05 00:30:45;;;;;;;2.28;1.08;;;;;;;;;;5069579;28;20481;-46
2021/03/05 00:33:12;;;;;;;4.03;0.95;;;;;;;;;;5064543;28;20043;-44
2021/03/05 00:35:39;;;;;;;2.22;0.80;;;;;;;;;;5069870;28;20507;-44
2021/03/05 00:38:06;;;;;;;2.83;0.82;;;;;;;;;;5065863;28;20033;-44
2021/03/05 00:40:33;;;;;;;4.70;1.00;;;;;;;;;;5065842;28;20036;-44
2021/03/05 00:43:00;;;;;;;1.65;0.77;;;;;;;;;;5071376;28;20563;-44
2021/03/05 00:45:27;;;;;;;3.72;0.80;;;;;;;;;;5068227;28;20066;-44
2021/03/05 00:47:54;;;;;;;4.93;0.90;;;;;;;;;;5066465;28;20384;-44
2021/03/05 00:50:22;;;;;;;3.10;0.82;;;;;;;;;;5064063;28;20102;-47
2021/03/05 00:52:51;;;;;;;3.25;0.93;;;;;;;;;;5062784;28;20025;-44
2021/03/05 00:55:18;;;;;;;1.75;0.70;;;;;;;;;;5062552;28;20086;-43
2021/03/05 00:57:45;;;;;;;7.88;1.10;;;;;;;;;;5059282;28;20040;-46
2021/03/05 01:00:14;;;;;;;3.35;1.00;;;;;;;;;;5061546;28;20124;-43
2021/03/05 01:02:41;;;;;;;2.22;1.00;;;;;;;;;;5060554;28;20468;-43
2021/03/05 01:05:08;;;;;;;5.60;1.00;;;;;;;;;;5057110;28;20089;-43
2021/03/05 01:07:35;;;;;;;7.07;0.90;;;;;;;;;;5064433;28;20088;-43
2021/03/05 01:10:03;;;;;;;2.55;0.98;;;;;;;;;;5076523;28;20116;-44
2021/03/05 01:12:30;;;;;;;4.10;0.88;;;;;;;;;;5060796;28;20025;-44
2021/03/05 01:14:57;;;;;;;3.83;0.95;;;;;;;;;;5056842;28;20104;-43
2021/03/05 01:17:24;;;;;;;2.58;0.85;;;;;;;;;;5060905;28;20043;-43
2021/03/05 01:19:51;;;;;;;3.58;0.98;;;;;;;;;;5078324;28;20020;-43
2021/03/05 01:22:18;;;;;;;2.45;0.90;;;;;;;;;;5063520;28;20051;-47
2021/03/05 01:24:45;;;;;;;2.08;0.70;;;;;;;;;;5062357;28;20107;-51
2021/03/05 01:27:12;;;;;;;4.50;1.00;;;;;;;;;;5061391;28;20028;-45
2021/03/05 01:29:39;;;;;;;1.50;0.80;;;;;;;;;;5066659;28;20074;-46
2021/03/05 01:32:08;;;;;;;6.55;0.98;;;;;;;;;;5072061;28;20050;-55
2021/03/05 01:34:36;;;;;;;5.72;1.00;;;;;;;;;;5065531;28;20028;-52
2021/03/05 01:37:03;;;;;;;5.15;1.40;;;;;;;;;;5061240;28;20124;-51
2021/03/05 01:39:30;;;;;;;1.92;0.80;;;;;;;;;;5061017;28;20524;-54
2021/03/05 01:41:57;;;;;;;5.35;1.30;;;;;;;;;;5062789;28;20020;-47
2021/03/05 01:44:24;;;;;;;7.63;1.10;;;;;;;;;;5061514;28;20108;-50
2021/03/05 01:46:51;;;;;;;6.75;1.20;;;;;;;;;;5060960;28;20491;-49
2021/03/05 01:49:18;;;;;;;3.35;1.30;;;;;;;;;;5062618;28;20536;-51
2021/03/05 01:51:45;;;;;;;6.95;1.70;;;;;;;;;;5061306;28;20055;-52
2021/03/05 01:54:12;;;;;;;5.63;1.38;;;;;;;;;;5060653;28;20376;-50
2021/03/05 01:56:43;;;;;;;3.38;1.85;;;;;;;;;;5062454;28;20495;-51
2021/03/05 01:59:11;;;;;;;5.40;1.60;;;;;;;;;;5061525;28;20013;-57
2021/03/05 02:01:40;;;;;;;3.95;1.65;;;;;;;;;;5067119;28;20079;-47
2021/03/05 02:04:13;;;;;;;4.82;1.42;;;;;;;;;;5061457;28;20417;-47
2021/03/05 02:06:40;;;;;;;4.43;1.63;;;;;;;;;;5061862;28;20021;-50
2021/03/05 02:09:08;;;;;;;6.45;2.10;;;;;;;;;;5061862;28;20035;-46
2021/03/05 02:11:37;;;;;;;9.65;1.58;;;;;;;;;;5056892;28;20025;-57
2021/03/05 02:14:06;;;;;;;5.55;2.08;;;;;;;;;;5051507;28;20071;-51
2021/03/05 02:16:48;;;;;;;6.40;1.92;;;;;;;;;;5051988;28;20033;-49
2021/03/05 02:19:23;;;;;;;6.53;1.80;;;;;;;;;;5051685;28;20095;-50
2021/03/05 02:22:09;;;;;;;6.63;1.75;;;;;;;;;;5051824;28;20115;-54
2021/03/05 02:24:59;;;;;;;3.67;1.85;;;;;;;;;;5051835;28;20052;-50
2021/03/05 02:27:32;;;;;;;6.95;1.88;;;;;;;;;;5051473;28;20025;-41
2021/03/05 02:30:11;;;;;;;5.30;1.58;;;;;;;;;;5060488;28;20028;-41
2021/03/05 02:32:41;;;;;;;5.45;1.90;;;;;;;;;;5065693;28;20021;-41
2021/03/05 02:35:08;;;;;;;8.32;2.05;;;;;;;;;;5070501;28;20020;-42
2021/03/05 02:37:37;;;;;;;7.07;2.30;;;;;;;;;;5071138;28;20074;-41
2021/03/05 02:40:07;;;;;;;4.63;1.73;;;;;;;;;;5074386;28;20052;-41
2021/03/05 02:42:37;;;;;;;4.55;1.73;;;;;;;;;;5075230;28;20024;-42
2021/03/05 02:45:06;;;;;;;7.38;1.92;;;;;;;;;;5072144;28;20049;-42
2021/03/05 02:47:34;;;;;;;8.02;1.73;;;;;;;;;;5057646;28;20561;-42
2021/03/05 02:50:01;;;;;;;4.63;1.52;;;;;;;;;;5053894;28;20476;-43
2021/03/05 02:52:30;;;;;;;5.43;1.67;;;;;;;;;;5054973;28;20059;-42
2021/03/05 02:55:03;;;;;;;8.25;1.85;;;;;;;;;;5064135;28;20020;-43
2021/03/05 02:57:35;;;;;;;10.02;1.90;;;;;;;;;;5074644;28;20119;-44
2021/03/05 03:00:04;;;;;;;7.63;1.20;;;;;;;;;;5074012;28;20070;-44
2021/03/05 03:02:32;;;;;;;8.23;1.50;;;;;;;;;;5075126;28;20032;-45
2021/03/05 03:05:01;;;;;;;9.48;1.92;;;;;;;;;;5074684;28;20016;-45
2021/03/05 03:07:29;;;;;;;4.22;1.40;;;;;;;;;;5074764;28;20052;-43
2021/03/05 03:09:56;;;;;;;8.90;1.52;;;;;;;;;;5074844;28;20025;-45
2021/03/05 03:12:24;;;;;;;4.30;1.55;;;;;;;;;;5074602;28;20027;-45
2021/03/05 03:14:51;;;;;;;4.90;1.55;;;;;;;;;;5074901;28;20044;-44
2021/03/05 03:17:18;;;;;;;6.57;1.65;;;;;;;;;;5074020;28;20036;-52
2021/03/05 03:19:50;;;;;;;7.40;1.60;;;;;;;;;;5074933;28;20055;-51
2021/03/05 03:22:18;;;;;;;4.68;1.50;;;;;;;;;;5074219;28;20396;-50
2021/03/05 03:24:46;;;;;;;4.50;1.35;;;;;;;;;;5074358;28;20476;-51
2021/03/05 03:27:13;;;;;;;6.30;1.55;;;;;;;;;;5074094;28;20028;-46
2021/03/05 03:29:41;;;;;;;3.78;1.27;;;;;;;;;;5074236;28;20021;-45
2021/03/05 03:32:12;;;;;;;5.57;1.80;;;;;;;;;;5073954;28;20058;-46
2021/03/05 03:34:39;;;;;;;4.80;1.38;;;;;;;;;;5074420;28;20142;-46
2021/03/05 03:37:07;;;;;;;5.70;1.30;;;;;;;;;;5072525;28;20039;-45
2021/03/05 03:39:35;;;;;;;5.32;1.27;;;;;;;;;;5074372;28;20020;-45
2021/03/05 03:42:03;;;;;;;3.00;1.20;;;;;;;;;;5073739;28;20111;-47
2021/03/05 03:44:30;;;;;;;4.40;1.10;;;;;;;;;;5074375;28;20036;-48
2021/03/05 03:46:57;;;;;;;10.10;1.55;;;;;;;;;;5073453;28;20357;-45
2021/03/05 03:49:27;;;;;;;2.38;1.10;;;;;;;;;;5073898;28;20029;-46
2021/03/05 03:51:56;;;;;;;4.10;1.35;;;;;;;;;;5073941;28;20065;-44
2021/03/05 03:54:24;;;;;;;4.25;1.20;;;;;;;;;;5074245;28;20020;-45
2021/03/05 03:56:52;;;;;;;4.35;1.05;;;;;;;;;;5073874;28;20032;-45
2021/03/05 03:59:20;;;;;;;3.63;1.20;;;;;;;;;;5073901;28;20021;-45
2021/03/05 04:01:48;;;;;;;3.42;1.58;;;;;;;;;;5074225;28;20031;-47
2021/03/05 04:04:16;;;;;;;3.75;1.30;;;;;;;;;;5073286;28;20028;-45
2021/03/05 04:06:44;;;;;;;3.72;1.33;;;;;;;;;;5072495;28;20031;-46
2021/03/05 04:09:12;;;;;;;5.05;1.50;;;;;;;;;;5072263;28;20046;-46
2021/03/05 04:11:40;;;;;;;4.90;1.55;;;;;;;;;;5073533;28;20025;-46
2021/03/05 04:14:07;;;;;;;5.53;1.40;;;;;;;;;;5073214;28;20027;-45
2021/03/05 04:16:34;;;;;;;3.92;1.48;;;;;;;;;;5073605;28;20142;-46
2021/03/05 04:19:01;;;;;;;2.75;1.40;;;;;;;;;;5073104;28;20033;-44
2021/03/05 04:21:33;;;;;;;3.53;1.65;;;;;;;;;;5073556;28;20024;-46
2021/03/05 04:24:01;;;;;;;6.13;1.50;;;;;;;;;;5073269;28;20028;-46
2021/03/05 04:26:28;;;;;;;3.47;1.60;;;;;;;;;;5073490;28;20016;-45
2021/03/05 04:28:55;;;;;;;3.05;1.35;;;;;;;;;;5072939;28;20032;-46
2021/03/05 04:31:22;;;;;;;4.60;1.73;;;;;;;;;;5073446;28;20017;-45
2021/03/05 04:33:49;;;;;;;3.72;1.67;;;;;;;;;;5072869;28;20485;-45
2021/03/05 04:36:16;;;;;;;3.63;1.60;;;;;;;;;;5073382;28;20063;-47
2021/03/05 04:38:43;;;;;;;3.88;1.60;;;;;;;;;;5073230;28;20089;-46
2021/03/05 04:41:10;;;;;;;2.25;1.33;;;;;;;;;;5073212;28;20361;-45
2021/03/05 04:43:37;;;;;;;3.70;1.67;;;;;;;;;;5053065;28;20485;-47
2021/03/05 04:46:04;;;;;;;2.60;1.50;;;;;;;;;;5052364;28;20053;-45
2021/03/05 04:48:31;;;;;;;4.18;1.90;;;;;;;;;;5063476;28;20458;-46
2021/03/05 04:50:58;;;;;;;3.33;1.50;;;;;;;;;;5072664;28;20024;-45
2021/03/05 04:53:25;;;;;;;3.78;1.42;;;;;;;;;;5073252;28;20024;-44
2021/03/05 04:55:52;;;;;;;4.32;1.55;;;;;;;;;;5072627;28;20484;-47
2021/03/05 04:58:19;;;;;;;4.55;1.65;;;;;;;;;;5072644;28;20082;-46
2021/03/05 05:00:46;;;;;;;5.28;1.30;;;;;;;;;;5071863;28;20099;-47
2021/03/05 05:03:13;;;;;;;4.00;1.35;;;;;;;;;;5072813;28;20082;-44
2021/03/05 05:05:40;;;;;;;3.28;1.10;;;;;;;;;;5072207;28;20469;-45
2021/03/05 05:08:07;;;;;;;1.70;0.90;;;;;;;;;;5072549;28;20032;-47
2021/03/05 05:10:35;;;;;;;2.67;1.10;;;;;;;;;;5072437;28;20017;-44
2021/03/05 05:13:02;;;;;;;2.08;1.00;;;;;;;;;;5072611;28;20380;-46
2021/03/05 05:15:29;;;;;;;1.60;0.95;;;;;;;;;;5071962;28;20052;-45
2021/03/05 05:17:56;;;;;;;2.97;1.00;;;;;;;;;;5072363;28;20032;-46
2021/03/05 05:20:23;;;;;;;4.32;1.25;;;;;;;;;;5072096;28;20013;-44
2021/03/05 05:22:50;;;;;;;5.00;1.40;;;;;;;;;;5072603;28;20039;-46
2021/03/05 05:25:17;;;;;;;3.20;0.70;;;;;;;;;;5072605;28;20473;-45
2021/03/05 05:27:44;;;;;;;2.42;0.90;;;;;;;;;;5071607;28;20036;-45
2021/03/05 05:30:11;;;;;;;1.25;0.93;;;;;;;;;;5072043;28;20546;-48
2021/03/05 05:32:38;;;;;;;4.65;1.25;;;;;;;;;;5071742;28;20021;-45
2021/03/05 05:35:05;;;;;;;3.45;0.90;;;;;;;;;;5072391;28;20514;-45
2021/03/05 05:37:32;;;;;;;3.88;1.08;;;;;;;;;;5071438;28;20044;-44
2021/03/05 05:39:59;;;;;;;3.10;1.05;;;;;;;;;;5071029;28;20565;-45
2021/03/05 05:42:26;;;;;;;5.40;0.90;;;;;;;;;;5071838;28;20020;-47
2021/03/05 05:44:53;;;;;;;3.58;1.15;;;;;;;;;;5071751;28;20044;-45
2021/03/05 05:47:21;;;;;;;6.38;1.20;;;;;;;;;;5070385;28;20059;-46
2021/03/05 05:49:49;;;;;;;4.47;1.08;;;;;;;;;;5071810;28;20020;-46
2021/03/05 05:52:26;;;;;;;1.85;0.90;;;;;;;;;;5071507;28;20026;-45
2021/03/05 05:54:56;;;;;;;2.20;0.90;;;;;;;;;;5072101;28;20519;-45
2021/03/05 05:57:24;;;;;;;2.83;1.10;;;;;;;;;;5071543;28;20043;-47
2021/03/05 05:59:51;;;;;;;3.33;1.00;;;;;;;;;;5071831;28;20082;-46
2021/03/05 06:02:18;;;;;;;4.63;1.13;;;;;;;;;;5071524;28;20028;-44
2021/03/05 06:04:46;;;;;;;4.07;1.10;;;;;;;;;;5072131;28;20048;-45
2021/03/05 06:07:13;;;;;;;2.38;1.15;;;;;;;;;;5069946;28;20078;-46
2021/03/05 06:09:40;;;;;;;2.45;0.85;;;;;;;;;;5071482;28;20020;-45
2021/03/05 06:12:13;;;;;;;2.75;0.80;;;;;;;;;;5071821;28;20103;-44
2021/03/05 06:14:41;;;;;;;3.97;1.13;;;;;;;;;;5071413;28;20552;-45
2021/03/05 06:17:08;;;;;;;2.38;0.88;;;;;;;;;;5071724;28;20055;-44
2021/03/05 06:19:35;;;;;;;3.97;1.10;;;;;;;;;;5071290;28;20024;-45
2021/03/05 06:22:04;;;;;;;3.65;1.00;;;;;;;;;;5071704;28;20024;-44
2021/03/05 06:24:43;;;;;;;4.50;1.23;;;;;;;;;;5071327;28;20024;-44
2021/03/05 06:27:10;;;;;;;3.88;1.23;;;;;;;;;;5070315;28;20028;-45
2021/03/05 06:29:41;;;;;;;5.10;1.05;;;;;;;;;;5071158;28;20048;-44
2021/03/05 06:32:09;;;;;;;4.63;1.48;;;;;;;;;;5071438;28;20049;-45
2021/03/05 06:34:52;;;;;;;3.35;1.25;;;;;;;;;;5071123;28;20485;-44
2021/03/05 06:37:21;;;;;;;6.40;1.23;;;;;;;;;;5071376;28;20043;-44
2021/03/05 06:40:02;;;;;;;5.72;1.13;;;;;;;;;;5070923;28;20020;-44
2021/03/05 06:42:29;;;;;;;3.27;1.10;;;;;;;;;;5071628;28;20549;-45
2021/03/05 06:44:56;;;;;;;2.97;1.10;;;;;;;;;;5069731;28;20044;-44
2021/03/05 06:47:27;;;;;;;3.35;1.30;;;;;;;;;;5071503;28;20020;-44
2021/03/05 06:49:54;;;;;;;8.60;1.73;;;;;;;;;;5070662;28;20029;-44
2021/03/05 06:52:21;;;;;;;4.03;1.05;;;;;;;;;;5070247;28;20031;-45
2021/03/05 06:54:49;;;;;;;4.15;1.33;;;;;;;;;;5071126;28;20361;-45
2021/03/05 06:57:26;;;;;;;4.05;1.25;;;;;;;;;;5071079;28;20037;-46
2021/03/05 06:59:53;;;;;;;4.93;1.35;;;;;;;;;;5071272;28;20084;-44
2021/03/05 07:02:29;;;;;;;4.57;1.33;;;;;;;;;;5071044;28;20175;-45
2021/03/05 07:04:56;;;;;;;4.70;1.02;;;;;;;;;;5071710;28;20028;-44
2021/03/05 07:07:24;;;;;;;6.82;1.65;;;;;;;;;;5070818;28;20047;-44
2021/03/05 07:09:55;;;;;;;5.43;1.70;;;;;;;;;;5071091;28;20031;-44
2021/03/05 07:12:24;;;;;;;6.20;1.63;;;;;;;;;;5070822;28;20021;-45
2021/03/05 07:15:05;;;;;;;5.80;1.70;;;;;;;;;;5071260;28;20067;-45
2021/03/05 07:17:33;;;;;;;7.50;1.40;;;;;;;;;;5070528;28;20048;-45
2021/03/05 07:20:00;;;;;;;4.15;1.40;;;;;;;;;;5070912;28;20052;-45
2021/03/05 07:22:29;;;;;;;6.20;1.50;;;;;;;;;;5070645;28;20167;-45
2021/03/05 07:25:01;;;;;;;5.22;1.25;;;;;;;;;;5073191;28;20415;-44
2021/03/05 07:27:29;;;;;;;5.35;1.05;;;;;;;;;;5074234;28;20020;-45
2021/03/05 07:29:57;;;;;;;3.20;1.05;;;;;;;;;;5074035;28;20027;-44
2021/03/05 07:32:40;;;;;;;3.53;1.30;;;;;;;;;;5074030;28;20021;-45
2021/03/05 07:35:13;;;;;;;6.75;1.65;;;;;;;;;;5074535;28;20392;-44
2021/03/05 07:38:01;;;;;;;2.85;1.13;;;;;;;;;;5073771;28;20050;-44
2021/03/05 07:40:28;;;;;;;3.58;1.00;;;;;;;;;;5074096;28;20031;-45
2021/03/05 07:42:56;;;;;;;4.22;1.33;;;;;;;;;;5074041;28;20480;-44
2021/03/05 07:45:23;;;;;;;3.58;0.90;;;;;;;;;;5074274;28;20040;-45
2021/03/05 07:47:51;;;;;;;4.35;1.25;;;;;;;;;;5073800;28;20043;-45
2021/03/05 07:50:23;;;;;;;7.13;1.58;;;;;;;;;;5074243;28;20020;-44
2021/03/05 07:52:50;;;;;;;5.03;1.42;;;;;;;;;;5072310;28;20028;-45
2021/03/05 07:55:35;;;;;;;5.53;1.10;;;;;;;;;;5074184;28;20040;-44
2021/03/05 07:58:02;;;;;;;7.22;1.52;;;;;;;;;;5073489;28;20024;-45
2021/03/05 08:00:48;;;;;;;5.00;1.10;;;;;;;;;;5074108;28;20055;-47
2021/03/05 08:03:17;;;;;;;4.18;1.63;;;;;;;;;;5073660;28;20028;-44
2021/03/05 08:05:50;;;;;;;5.20;1.17;;;;;;;;;;5073832;28;20028;-45
2021/03/05 08:08:21;;;;;;;5.22;1.30;;;;;;;;;;5073714;28;20056;-44
2021/03/05 08:10:52;;;;;;;3.97;1.27;;;;;;;;;;5073945;28;20020;-45
2021/03/05 08:13:48;;;;;;;5.28;1.50;;;;;;;;;;5073577;28;20032;-44
2021/03/05 08:16:27;;;;;;;3.47;0.80;;;;;;;;;;5073497;28;20030;-47
2021/03/05 08:19:15;;;;;;;5.18;1.20;;;;;;;;;;5073342;28;20503;-45
2021/03/05 08:21:55;;;;;;;4.28;1.08;;;;;;;;;;5073375;28;20108;-44
2021/03/05 08:24:22;;;;;;;8.60;1.33;;;;;;;;;;5073085;28;20040;-46
2021/03/05 08:26:58;;;;;;;8.77;1.50;;;;;;;;;;5073687;28;20024;-45
2021/03/05 08:29:43;;;;;;;5.30;1.40;;;;;;;;;;5073125;28;20495;-45
2021/03/05 08:32:30;;;;;;;5.05;1.35;;;;;;;;;;5073149;28;20044;-44
2021/03/05 08:34:57;;;;;;;3.17;1.08;;;;;;;;;;5061229;28;20039;-44
2021/03/05 08:37:35;;;;;;;5.43;1.30;;;;;;;;;;5088194;28;20064;-44
2021/03/05 08:40:14;;;;;;;5.38;1.25;;;;;;;;;;5072893;28;20025;-45
2021/03/05 08:42:46;;;;;;;5.05;1.25;;;;;;;;;;5073061;28;20443;-44
2021/03/05 08:45:13;;;;;;;6.68;1.42;;;;;;;;;;5072748;28;20538;-46
2021/03/05 08:47:44;;;;;;;4.47;1.20;;;;;;;;;;5072769;28;20023;-46
2021/03/05 08:50:12;;;;;;;5.43;1.40;;;;;;;;;;5072757;28;20488;-46
2021/03/05 08:52:46;;;;;;;6.97;1.40;;;;;;;;;;5073007;28;20020;-46
2021/03/05 08:55:15;;;;;;;5.20;1.30;;;;;;;;;;5072723;28;20025;-45
2021/03/05 08:57:43;;;;;;;5.60;1.55;;;;;;;;;;5072868;28;20849;-45
2021/03/05 09:00:13;;;;;;;5.53;1.27;;;;;;;;;;5072167;28;20063;-46
2021/03/05 09:02:41;;;;;;;8.20;1.35;;;;;;;;;;5071268;28;20033;-45
2021/03/05 09:05:08;;;;;;;4.25;1.35;;;;;;;;;;5072580;28;20021;-46
2021/03/05 09:07:46;;;;;;;5.45;1.52;;;;;;;;;;5072542;28;20028;-44
2021/03/05 09:10:13;;;;;;;7.25;1.73;;;;;;;;;;5072647;28;20021;-44
2021/03/05 09:12:53;;;;;;;4.50;1.45;;;;;;;;;;5072182;28;20484;-45
2021/03/05 09:15:23;;;;;;;4.55;1.20;;;;;;;;;;5072700;28;20029;-45
2021/03/05 09:17:50;;;;;;;6.28;1.40;;;;;;;;;;5071973;28;20028;-45
2021/03/05 09:20:17;;;;;;;5.90;1.40;;;;;;;;;;5071330;28;20107;-44
2021/03/05 09:22:44;;;;;;;4.80;1.30;;;;;;;;;;5071991;28;20029;-46
2021/03/05 09:25:11;;;;;;;6.32;1.60;;;;;;;;;;5072376;28;20071;-46
2021/03/05 09:27:43;;;;;;;6.40;1.30;;;;;;;;;;5071854;28;20051;-45
2021/03/05 09:30:20;;;;;;;7.17;1.53;;;;;;;;;;5072316;28;20025;-44
2021/03/05 09:32:52;;;;;;;5.70;1.33;;;;;;;;;;5071527;28;20206;-44
2021/03/05 09:35:25;;;;;;;4.72;1.25;;;;;;;;;;5072311;28;20052;-43
2021/03/05 09:37:52;;;;;;;9.80;1.75;;;;;;;;;;5071549;28;20035;-45
2021/03/05 09:40:19;;;;;;;5.85;1.40;;;;;;;;;;5072422;28;20020;-44
2021/03/05 09:42:51;;;;;;;7.78;1.70;;;;;;;;;;5070218;28;20381;-44
2021/03/05 09:45:35;;;;;;;6.03;1.65;;;;;;;;;;5072045;28;20044;-44
2021/03/05 09:48:03;;;;;;;5.75;1.67;;;;;;;;;;5071234;28;20491;-44
2021/03/05 09:50:30;;;;;;;3.45;1.30;;;;;;;;;;5072225;28;20059;-45
2021/03/05 09:52:57;;;;;;;9.30;1.67;;;;;;;;;;5071486;28;20016;-45
2021/03/05 09:55:28;;;;;;;4.35;1.15;;;;;;;;;;5072162;28;20550;-44
2021/03/05 09:57:56;;;;;;;6.47;1.70;;;;;;;;;;5071361;28;20036;-45
2021/03/05 10:00:33;;;;;;;7.70;1.60;;;;;;;;;;5072302;28;20033;-44
2021/03/05 10:03:06;;;;;;;6.90;1.80;;;;;;;;;;5071482;28;20017;-44
2021/03/05 10:05:34;;;;;;;6.93;2.05;;;;;;;;;;5071871;28;20031;-45
2021/03/05 10:08:10;;;;;;;15.68;1.88;;;;;;;;;;5071337;28;20576;-44
2021/03/05 10:10:54;;;;;;;6.32;1.67;;;;;;;;;;5072115;28;20017;-45
2021/03/05 10:13:21;;;;;;;5.85;1.52;;;;;;;;;;5071688;28;20063;-44
2021/03/05 10:15:49;;;;;;;8.02;1.50;;;;;;;;;;5071473;28;20431;-44
2021/03/05 10:18:16;;;;;;;6.28;1.40;;;;;;;;;;5071273;28;20032;-44
2021/03/05 10:20:52;;;;;;;7.47;1.30;;;;;;;;;;5072015;28;20040;-43
2021/03/05 10:23:19;;;;;;;6.35;1.77;;;;;;;;;;5071442;28;20027;-44
2021/03/05 10:25:52;;;;;;;5.47;1.80;;;;;;;;;;5071622;28;20028;-46
2021/03/05 10:28:29;;;;;;;10.20;2.00;;;;;;;;;;5071583;28;20361;-45
2021/03/05 10:30:56;;;;;;;5.68;1.30;;;;;;;;;;5071232;28;20548;-45
2021/03/05 11:03:13;;;;;;;13.57;2.33;;;;;;;;;;5080346;27;1975031;-46
2021/03/05 11:05:40;;;;;;;12.95;2.03;;;;;;;;;;5111613;28;20046;-44
2021/03/05 11:08:08;;;;;;;10.20;1.90;;;;;;;;;;5130024;28;20020;-48
2021/03/05 11:10:35;;;;;;;7.97;1.45;;;;;;;;;;5119198;28;20050;-47
2021/03/05 11:13:03;;;;;;;8.27;1.83;;;;;;;;;;5127188;28;20019;-41
2021/03/05 11:15:30;;;;;;;18.83;2.40;;;;;;;;;;5130203;28;20478;-41
2021/03/05 11:17:57;;;;;;;18.73;3.22;;;;;;;;;;5124418;28;20028;-43
2021/03/05 11:20:24;;;;;;;7.57;2.30;;;;;;;;;;5140252;27;20369;-41
2021/03/05 11:22:53;;;;;;;13.30;2.08;;;;;;;;;;5140953;27;20058;-41
2021/03/05 11:25:21;;;;;;;48.40;5.45;;;;;;;;;;5124699;27;20020;-43
2021/03/05 11:27:48;;;;;;;133.38;13.90;;;;;;;;;;5111022;28;20110;-42
2021/03/05 11:30:15;;;;;;;62.03;6.57;;;;;;;;;;5127961;28;20030;-42
2021/03/05 11:32:43;;;;;;;22.42;3.33;;;;;;;;;;5129078;28;20051;-40
2021/03/05 11:35:10;;;;;;;19.70;3.83;;;;;;;;;;5139416;27;20023;-40
2021/03/05 11:37:37;;;;;;;19.75;3.35;;;;;;;;;;5150073;27;20023;-42
2021/03/05 11:40:04;;;;;;;18.48;3.22;;;;;;;;;;5149363;27;20730;-40
2021/03/05 11:42:31;;;;;;;7.82;2.40;;;;;;;;;;5149806;27;20034;-39
2021/03/05 11:45:00;;;;;;;14.15;2.50;;;;;;;;;;5149495;27;20015;-40
2021/03/05 11:47:27;;;;;;;12.20;2.33;;;;;;;;;;5149819;27;20462;-40
2021/03/05 11:49:54;;;;;;;13.48;2.72;;;;;;;;;;5149046;27;20023;-37
2021/03/05 11:52:21;;;;;;;9.63;2.83;;;;;;;;;;5135207;27;20029;-41
2021/03/05 11:54:48;;;;;;;21.45;4.43;;;;;;;;;;5107067;28;20046;-37
2021/03/05 11:57:15;;;;;;;23.48;3.95;;;;;;;;;;5108390;28;20024;-36
2021/03/05 11:59:42;;;;;;;19.35;2.75;;;;;;;;;;5108106;28;20024;-39
2021/03/05 12:02:08;;;;;;;89.90;7.32;;;;;;;;;;5105839;28;20406;-42
2021/03/05 12:04:35;;;;;;;32.10;4.00;;;;;;;;;;5076496;28;20373;-39
2021/03/05 12:07:02;;;;;;;25.00;3.40;;;;;;;;;;5092494;28;20107;-44
2021/03/05 12:09:29;;;;;;;28.33;3.42;;;;;;;;;;5091935;28;20059;-53
2021/03/05 12:11:56;;;;;;;25.42;3.63;;;;;;;;;;5090116;28;20110;-50
2021/03/05 12:14:23;;;;;;;23.27;2.72;;;;;;;;;;5091897;28;20040;-46
2021/03/05 12:16:50;;;;;;;10.68;2.35;;;;;;;;;;5093564;28;20023;-46
2021/03/05 12:19:17;;;;;;;13.65;2.33;;;;;;;;;;5091516;28;20393;-53
2021/03/05 12:21:44;;;;;;;10.10;1.75;;;;;;;;;;5092160;28;20039;-59
2021/03/05 12:24:11;;;;;;;14.55;1.77;;;;;;;;;;5090145;28;20020;-42
2021/03/05 12:26:38;;;;;;;14.18;2.67;;;;;;;;;;5087309;28;20020;-39
2021/03/05 12:29:05;;;;;;;7.85;1.90;;;;;;;;;;5076834;28;20020;-47
2021/03/05 12:31:32;;;;;;;17.23;2.00;;;;;;;;;;5089636;28;20379;-39
2021/03/05 12:34:01;;;;;;;8.43;1.90;;;;;;;;;;5092324;28;20035;-39
2021/03/05 12:36:29;;;;;;;10.93;2.50;;;;;;;;;;5085686;28;20067;-41
2021/03/05 12:38:57;;;;;;;12.18;2.15;;;;;;;;;;5079642;28;20047;-38
2021/03/05 12:41:24;;;;;;;14.95;1.75;;;;;;;;;;5090706;28;20090;-38
2021/03/05 12:43:51;;;;;;;60.05;5.85;;;;;;;;;;5087654;28;20034;-41
2021/03/05 12:46:18;;;;;;;21.23;3.00;;;;;;;;;;5087778;28;20016;-39
2021/03/05 12:48:45;;;;;;;8.98;2.10;;;;;;;;;;5086947;28;20769;-39
2021/03/05 12:51:12;;;;;;;15.43;2.75;;;;;;;;;;5067794;28;20028;-44
2021/03/05 12:53:39;;;;;;;13.23;2.20;;;;;;;;;;5089774;28;20375;-40
2021/03/05 12:56:06;;;;;;;7.20;1.77;;;;;;;;;;5083006;28;20022;-39
2021/03/05 12:58:34;;;;;;;16.50;2.60;;;;;;;;;;5078237;28;20403;-38
2021/03/05 13:01:01;;;;;;;15.57;2.60;;;;;;;;;;5065922;28;20048;-39
2021/03/05 13:03:28;;;;;;;16.00;2.85;;;;;;;;;;5089439;28;20055;-39
2021/03/05 13:05:55;;;;;;;11.05;1.88;;;;;;;;;;5086822;28;20032;-40
2021/03/05 13:08:22;;;;;;;8.40;2.13;;;;;;;;;;5078009;28;20384;-40
2021/03/05 13:10:50;;;;;;;10.80;1.73;;;;;;;;;;5082752;28;20028;-51
2021/03/05 13:13:17;;;;;;;13.82;1.67;;;;;;;;;;5083961;28;20204;-39
2021/03/05 13:15:44;;;;;;;8.40;1.63;;;;;;;;;;5082333;28;20027;-46
2021/03/05 13:18:12;;;;;;;5.93;1.52;;;;;;;;;;5084677;28;20044;-39
2021/03/05 13:20:39;;;;;;;11.57;1.98;;;;;;;;;;5083180;28;20020;-41
2021/03/05 13:23:06;;;;;;;6.97;1.85;;;;;;;;;;5076234;28;20035;-39
2021/03/05 13:25:34;;;;;;;11.63;1.60;;;;;;;;;;5081713;28;20044;-41
2021/03/05 13:28:02;;;;;;;6.57;1.60;;;;;;;;;;5080185;28;20089;-40
2021/03/05 13:30:29;;;;;;;8.63;1.50;;;;;;;;;;5085982;28;20048;-39
2021/03/05 13:32:59;;;;;;;8.75;1.98;;;;;;;;;;5083968;28;20421;-40
2021/03/05 13:35:26;;;;;;;34.38;2.25;;;;;;;;;;5085464;28;20046;-40
2021/03/05 13:37:53;;;;;;;16.15;1.83;;;;;;;;;;5074045;28;20070;-40
2021/03/05 13:42:49;;;;;;;6.80;1.73;;;;;;;;;;4964108;28;20050;-45
2021/03/05 13:45:16;;;;;;;12.40;1.92;;;;;;;;;;4984176;28;20041;-40
2021/03/05 13:47:43;;;;;;;10.38;1.65;;;;;;;;;;4985140;28;20026;-40
2021/03/05 13:50:10;;;;;;;8.60;1.67;;;;;;;;;;4983858;28;20553;-41
2021/03/05 13:52:37;;;;;;;8.57;1.42;;;;;;;;;;4982739;28;20037;-41
2021/03/05 13:55:05;;;;;;;7.30;1.35;;;;;;;;;;5159503;23;20975;-41
2021/03/05 13:57:32;;;;;;;7.78;1.38;;;;;;;;;;5032070;28;20425;-41
2021/03/05 13:59:59;;;;;;;11.77;1.90;;;;;;;;;;5041653;28;20036;-41
2021/03/05 14:02:26;;;;;;;11.75;2.17;;;;;;;;;;5044405;28;20028;-41
2021/03/05 14:04:53;;;;;;;10.25;1.38;;;;;;;;;;5045168;28;20025;-41
2021/03/05 14:07:20;;;;;;;7.95;1.73;;;;;;;;;;5034716;28;20024;-40
2021/03/05 14:09:47;;;;;;;17.42;1.70;;;;;;;;;;5028120;28;20087;-41
2021/03/05 14:12:14;;;;;;;22.58;2.15;;;;;;;;;;5033392;28;20037;-41
2021/03/05 14:14:41;;;;;;;7.93;1.33;;;;;;;;;;5049524;28;20025;-41
2021/03/05 14:17:08;;;;;;;10.07;2.10;;;;;;;;;;5037368;28;20504;-41
2021/03/05 14:19:35;;;;;;;19.25;3.00;;;;;;;;;;5036709;28;20491;-41
2021/03/05 14:22:04;;;;;;;20.13;3.22;;;;;;;;;;5037770;28;20025;-41
2021/03/05 14:24:31;;;;;;;19.90;3.22;;;;;;;;;;5031507;28;20033;-41
2021/03/05 14:26:58;;;;;;;16.40;2.83;;;;;;;;;;5038362;28;20521;-41
2021/03/05 14:29:25;;;;;;;19.65;2.65;;;;;;;;;;5042323;28;20028;-41
2021/03/05 14:31:52;;;;;;;14.80;1.85;;;;;;;;;;5041176;28;20029;-42
2021/03/05 14:34:19;;;;;;;9.23;2.03;;;;;;;;;;5042000;28;20021;-41
2021/03/05 14:36:46;;;;;;;13.18;2.25;;;;;;;;;;5042648;28;20111;-41
2021/03/05 14:39:13;;;;;;;17.23;2.60;;;;;;;;;;5040536;28;20032;-41
2021/03/05 14:41:44;;;;;;;15.65;3.13;;;;;;;;;;5043384;28;20031;-41
2021/03/05 14:44:11;;;;;;;17.65;2.70;;;;;;;;;;5038871;28;20111;-40
2021/03/05 14:46:38;;;;;;;13.55;1.98;;;;;;;;;;5027241;28;20032;-42
2021/03/05 14:49:06;;;;;;;16.63;2.20;;;;;;;;;;5042390;28;20096;-43
2021/03/05 14:51:33;;;;;;;11.68;1.67;;;;;;;;;;5045098;28;20078;-41
2021/03/05 14:54:00;;;;;;;10.68;1.60;;;;;;;;;;5037706;28;20105;-40
2021/03/05 14:56:27;;;;;;;8.18;1.88;;;;;;;;;;5034250;28;20117;-41
2021/03/05 14:58:54;;;;;;;8.68;1.75;;;;;;;;;;5023814;28;20044;-40
2021/03/05 15:01:21;;;;;;;11.65;2.25;;;;;;;;;;5023879;28;20020;-40
2021/03/05 15:03:48;;;;;;;9.48;2.33;;;;;;;;;;5011838;28;20033;-40
2021/03/05 15:06:15;;;;;;;15.00;1.92;;;;;;;;;;5028069;28;20029;-40
2021/03/05 15:08:42;;;;;;;9.43;1.67;;;;;;;;;;5012877;28;20052;-46
2021/03/05 15:11:09;;;;;;;10.88;2.05;;;;;;;;;;5019132;28;20021;-47
2021/03/05 15:13:36;;;;;;;11.65;1.90;;;;;;;;;;5024985;28;20025;-46
2021/03/05 15:16:04;;;;;;;17.60;2.25;;;;;;;;;;5025771;28;20034;-47
2021/03/05 15:18:31;;;;;;;16.83;1.90;;;;;;;;;;5027904;28;20392;-46
2021/03/05 15:20:58;;;;;;;18.10;2.50;;;;;;;;;;5027213;28;20037;-42
2021/03/05 15:23:24;;;;;;;11.05;2.22;;;;;;;;;;5018371;28;20358;-47